ACO weather

CLOSED Ascona Airport
Ascona, Canton of Ticino, Switzerland

Public forecast

Using degrees Celsius for public forecast. Weather courtesy of forecast.io.

Closest aviation weather report (METAR) to Ascona Airport

Closest report is Locarno Airport, 4.0 nm (7.5 km) E. Retrieved 2020/07/16 12:20 UTC (10 minutes ago):

LSZL 161220Z 26005KT 230V290 9999 FEW060 SCT120 24/16 Q1014 RMK BLU+

Closest aviation forecast (TAF) to Ascona Airport

Closest forecast is Malpensa International Airport, 31.7 nm (58.8 km) S. Retrieved 2020/07/16 12:25 UTC (5 minutes ago):

TAF LIMC 161100Z 1612/1718 VRB05KT 9999 SCT060